Time;durP1;ratioP1;P1;durP2;ratioP2;P2;SDS_P1;SDS_P2;PMS_P1;PMS_P2;Temp;Humidity;BMP_temperature;BMP_pressure;BME280_temperature;BME280_humidity;BME280_pressure;Samples;Min_cycle;Max_cycle;Signal;HPM_P1;HPM_P2
2022/06/22 00:01:19;;;;;;;7.57;5.10;;;22.30;1.00;;;;;;5029785;28;20455;-73
2022/06/22 00:03:52;;;;;;;13.70;5.80;;;22.30;1.00;;;;;;5026680;28;20411;-73
2022/06/22 00:06:39;;;;;;;8.10;5.37;;;22.30;1.00;;;;;;5027668;28;20530;-73
2022/06/22 00:09:06;;;;;;;9.30;5.30;;;22.30;1.00;;;;;;5020258;28;20488;-73
2022/06/22 00:11:33;;;;;;;10.50;5.67;;;22.40;1.00;;;;;;5011934;28;20436;-74
2022/06/22 00:14:02;;;;;;;10.80;5.23;;;22.50;1.00;;;;;;5027907;28;20503;-73
2022/06/22 00:16:34;;;;;;;8.93;5.13;;;22.50;1.00;;;;;;5031918;28;20407;-73
2022/06/22 00:19:10;;;;;;;8.13;4.83;;;22.40;1.00;;;;;;5031073;28;20451;-73
2022/06/22 00:21:41;;;;;;;6.13;4.50;;;22.30;1.00;;;;;;5030637;28;20408;-74
2022/06/22 00:24:21;;;;;;;6.63;4.20;;;22.30;1.00;;;;;;5031165;28;20396;-73
2022/06/22 00:26:59;;;;;;;7.10;4.60;;;22.30;1.00;;;;;;5027782;28;20539;-73
2022/06/22 00:29:36;;;;;;;6.93;4.50;;;22.30;1.00;;;;;;5023735;28;20459;-73
2022/06/22 00:32:34;;;;;;;11.23;5.07;;;22.20;1.00;;;;;;5033896;28;20422;-73
2022/06/22 00:35:41;;;;;;;6.27;4.00;;;22.20;1.00;;;;;;5009650;28;20847;-74
2022/06/22 00:38:12;;;;;;;6.30;3.87;;;22.20;1.00;;;;;;5010581;28;20947;-73
2022/06/22 00:40:38;;;;;;;7.30;4.30;;;22.20;1.00;;;;;;5023477;28;20423;-73
2022/06/22 00:43:04;;;;;;;11.20;4.17;;;22.20;1.00;;;;;;5030502;28;20474;-73
2022/06/22 00:45:32;;;;;;;7.33;3.73;;;22.20;1.00;;;;;;5026907;28;20192;-73
2022/06/22 00:48:06;;;;;;;6.57;4.20;;;22.20;1.00;;;;;;5022701;28;20551;-73
2022/06/22 00:50:40;;;;;;;5.37;4.33;;;22.20;1.00;;;;;;5026347;28;20540;-73
2022/06/22 00:53:16;;;;;;;6.43;3.70;;;22.20;1.00;;;;;;5034210;28;20825;-74
2022/06/22 00:55:52;;;;;;;9.40;4.60;;;22.30;1.00;;;;;;5035549;28;20888;-73
2022/06/22 00:58:35;;;;;;;7.03;4.23;;;22.10;1.00;;;;;;5017693;28;20456;-74
2022/06/22 01:01:26;;;;;;;7.37;4.30;;;22.10;1.00;;;;;;5030087;28;20562;-74
2022/06/22 01:04:09;;;;;;;7.33;4.20;;;22.10;1.00;;;;;;5051094;28;20800;-73
2022/06/22 01:06:53;;;;;;;6.67;4.33;;;22.10;1.00;;;;;;5048195;28;20855;-73
2022/06/22 01:09:50;;;;;;;5.30;4.07;;;22.10;1.00;;;;;;5019366;28;20452;-73
2022/06/22 01:12:26;;;;;;;8.17;3.57;;;22.00;1.00;;;;;;5023060;28;20487;-73
2022/06/22 01:15:04;;;;;;;7.37;4.63;;;21.90;1.00;;;;;;5030490;28;20459;-73
2022/06/22 01:17:37;;;;;;;7.20;4.10;;;21.90;1.00;;;;;;5028759;28;20477;-73
2022/06/22 01:20:11;;;;;;;7.60;4.13;;;21.80;1.00;;;;;;5010258;28;20551;-73
2022/06/22 01:22:48;;;;;;;7.60;4.57;;;20.70;1.00;;;;;;5018529;28;20519;-73
2022/06/22 01:25:34;;;;;;;6.67;4.03;;;21.80;1.00;;;;;;5018860;28;20796;-73
2022/06/22 01:28:00;;;;;;;7.27;4.07;;;21.70;1.00;;;;;;5009695;28;20432;-73
2022/06/22 01:30:38;;;;;;;6.87;4.27;;;21.60;1.00;;;;;;5038139;28;20754;-73
2022/06/22 01:33:14;;;;;;;8.40;4.27;;;21.50;1.00;;;;;;5008199;28;20494;-73
2022/06/22 01:35:40;;;;;;;6.03;3.80;;;21.40;1.00;;;;;;5014227;28;20480;-73
2022/06/22 01:38:24;;;;;;;7.90;4.57;;;21.40;1.00;;;;;;5007879;28;20532;-73
2022/06/22 01:41:21;;;;;;;6.23;4.20;;;21.40;1.00;;;;;;5009170;28;20177;-74
2022/06/22 01:44:05;;;;;;;9.90;4.00;;;21.30;1.00;;;;;;5023797;28;20452;-73
2022/06/22 01:47:20;;;;;;;8.30;5.13;;;21.30;1.00;;;;;;5025780;28;20420;-73
2022/06/22 01:50:01;;;;;;;12.23;3.87;;;21.20;1.00;;;;;;5020992;28;21013;-73
2022/06/22 01:52:55;;;;;;;10.10;4.63;;;21.10;1.00;;;;;;5019200;28;21072;-73
2022/06/22 01:55:39;;;;;;;6.00;4.10;;;20.90;1.00;;;;;;5022428;28;20460;-73
2022/06/22 01:58:16;;;;;;;7.00;4.23;;;20.90;1.00;;;;;;5028866;28;20982;-73
2022/06/22 02:00:46;;;;;;;4.30;3.90;;;20.90;1.00;;;;;;5038726;28;20882;-73
2022/06/22 02:03:21;;;;;;;8.90;4.30;;;20.90;1.00;;;;;;5048687;28;20755;-73
2022/06/22 02:09:01;;;;;;;7.07;4.60;;;20.70;1.00;;;;;;5024991;28;20466;-72
2022/06/22 02:11:31;;;;;;;6.57;4.30;;;20.70;1.00;;;;;;5028792;28;20424;-73
2022/06/22 02:14:03;;;;;;;7.07;4.20;;;20.70;1.00;;;;;;5028450;28;20527;-73
2022/06/22 02:16:48;;;;;;;6.90;4.40;;;20.60;1.00;;;;;;5029773;28;20416;-73
2022/06/22 02:19:16;;;;;;;8.30;4.10;;;20.60;1.00;;;;;;5029525;28;20510;-74
2022/06/22 02:21:53;;;;;;;5.70;4.37;;;20.60;1.00;;;;;;5027816;28;20431;-73
2022/06/22 02:24:33;;;;;;;6.83;4.30;;;20.60;1.00;;;;;;5022601;28;20781;-73
2022/06/22 02:27:00;;;;;;;7.60;4.80;;;20.60;1.00;;;;;;5015728;28;20409;-73
2022/06/22 02:29:30;;;;;;;8.23;4.90;;;20.70;1.00;;;;;;5026494;28;20438;-73
2022/06/22 02:32:00;;;;;;;15.23;5.57;;;20.70;1.00;;;;;;5039439;28;20399;-73
2022/06/22 02:34:26;;;;;;;14.00;5.10;;;20.80;1.00;;;;;;5034424;28;20901;-73
2022/06/22 02:36:53;;;;;;;6.27;3.93;;;20.70;1.00;;;;;;5027898;28;20434;-74
2022/06/22 02:39:22;;;;;;;10.47;4.47;;;20.80;1.00;;;;;;5027741;28;20547;-74
2022/06/22 02:44:37;;;;;;;8.37;4.77;;;20.70;1.00;;;;;;5017280;28;20436;-73
2022/06/22 02:47:31;;;;;;;8.43;4.50;;;20.70;1.00;;;;;;5008678;28;20467;-73
2022/06/22 02:50:05;;;;;;;14.03;4.70;;;20.70;1.00;;;;;;5008626;28;20433;-73
2022/06/22 02:52:46;;;;;;;7.73;4.63;;;20.60;1.00;;;;;;5007343;28;20949;-73
2022/06/22 02:55:16;;;;;;;6.10;4.30;;;20.50;1.00;;;;;;5015028;28;20497;-73
2022/06/22 02:57:51;;;;;;;8.40;4.63;;;20.40;1.00;;;;;;5027692;28;20423;-73
2022/06/22 03:00:20;;;;;;;7.20;4.90;;;20.40;1.00;;;;;;5038890;28;20660;-73
2022/06/22 03:02:48;;;;;;;11.90;4.67;;;20.40;1.00;;;;;;5023756;28;20436;-72
2022/06/22 03:05:16;;;;;;;6.57;4.90;;;20.20;1.00;;;;;;5024843;28;20416;-74
2022/06/22 03:07:49;;;;;;;8.40;4.93;;;19.90;1.00;;;;;;5026900;28;20408;-74
2022/06/22 03:10:28;;;;;;;6.77;4.50;;;19.90;1.00;;;;;;5027355;28;20771;-74
2022/06/22 03:12:56;;;;;;;8.97;4.83;;;19.90;1.00;;;;;;5026981;28;20491;-73
2022/06/22 03:15:24;;;;;;;6.50;4.80;;;19.80;1.00;;;;;;5026397;28;21049;-73
2022/06/22 03:17:50;;;;;;;7.80;4.47;;;19.80;1.00;;;;;;5024925;28;20416;-73
2022/06/22 03:20:22;;;;;;;9.27;4.60;;;19.70;1.00;;;;;;5028258;28;20400;-73
2022/06/22 03:22:52;;;;;;;6.87;4.43;;;19.70;1.00;;;;;;5024078;28;20581;-73
2022/06/22 03:25:21;;;;;;;6.77;4.53;;;19.60;1.00;;;;;;5027482;28;20420;-74
2022/06/22 03:27:52;;;;;;;8.03;4.80;;;19.50;1.00;;;;;;5027701;28;21096;-73
2022/06/22 03:30:22;;;;;;;5.87;4.77;;;19.60;1.00;;;;;;5036475;28;20397;-73
2022/06/22 03:33:06;;;;;;;6.33;4.80;;;19.50;1.00;;;;;;5045277;28;20502;-73
2022/06/22 03:35:41;;;;;;;9.40;4.97;;;19.50;1.00;;;;;;5015688;28;20461;-73
2022/06/22 03:38:17;;;;;;;9.87;4.73;;;19.50;1.00;;;;;;5007385;28;20498;-73
2022/06/22 03:40:50;;;;;;;6.77;4.77;;;19.50;1.00;;;;;;5008547;28;20669;-73
2022/06/22 03:43:32;;;;;;;6.60;4.60;;;19.60;1.00;;;;;;5007479;28;20412;-73
2022/06/22 03:46:06;;;;;;;9.33;5.00;;;19.70;1.00;;;;;;5026962;28;20427;-73
2022/06/22 03:48:56;;;;;;;7.30;5.20;;;19.70;1.00;;;;;;5021012;28;20497;-73
2022/06/22 03:51:31;;;;;;;7.80;4.60;;;19.80;1.00;;;;;;5017931;28;20416;-73
2022/06/22 03:54:13;;;;;;;8.30;4.60;;;19.80;1.00;;;;;;5028366;28;20404;-73
2022/06/22 03:56:48;;;;;;;7.37;4.60;;;19.80;1.00;;;;;;5029765;28;20427;-72
2022/06/22 03:59:14;;;;;;;8.77;4.60;;;20.00;1.00;;;;;;5032639;28;20422;-73
2022/06/22 04:01:41;;;;;;;10.13;4.37;;;20.00;1.00;;;;;;5042161;28;20407;-73
2022/06/22 04:04:07;;;;;;;5.83;4.27;;;20.00;1.00;;;;;;5051734;28;20161;-72
2022/06/22 04:06:44;;;;;;;8.87;4.80;;;20.00;1.00;;;;;;5037159;28;20959;-73
2022/06/22 04:09:24;;;;;;;11.93;4.77;;;20.00;1.00;;;;;;5016782;28;20882;-73
2022/06/22 04:12:04;;;;;;;7.17;4.23;;;20.10;1.00;;;;;;5010956;28;20965;-73
2022/06/22 04:14:46;;;;;;;5.50;4.10;;;20.20;1.00;;;;;;5021412;28;20484;-73
2022/06/22 04:17:33;;;;;;;7.97;4.50;;;20.20;1.00;;;;;;5027930;28;20458;-73
2022/06/22 04:20:49;;;;;;;7.00;4.50;;;20.20;1.00;;;;;;5031083;28;20408;-73
2022/06/22 04:23:13;;;;;;;7.80;4.33;;;20.30;1.00;;;;;;5029266;28;20486;-73
2022/06/22 04:25:39;;;;;;;7.70;4.93;;;20.40;1.00;;;;;;5028823;28;20474;-73
2022/06/22 04:28:10;;;;;;;11.90;4.87;;;20.50;1.00;;;;;;5030945;28;20511;-72
2022/06/22 04:30:43;;;;;;;6.93;4.50;;;20.60;1.00;;;;;;5039476;28;20487;-73
2022/06/22 04:33:27;;;;;;;8.03;4.60;;;20.60;1.00;;;;;;5050236;28;20415;-73
2022/06/22 04:36:10;;;;;;;6.27;4.60;;;20.60;1.00;;;;;;5043821;28;20482;-72
2022/06/22 04:38:41;;;;;;;11.30;4.57;;;20.60;1.00;;;;;;5030192;28;20448;-73
2022/06/22 04:41:27;;;;;;;6.77;4.30;;;20.60;1.00;;;;;;5030356;28;20416;-73
2022/06/22 04:43:55;;;;;;;10.93;4.80;;;20.70;1.00;;;;;;5011472;28;20437;-72
2022/06/22 04:46:27;;;;;;;7.27;4.50;;;20.70;1.00;;;;;;5019447;28;20474;-73
2022/06/22 04:48:55;;;;;;;6.70;4.53;;;20.70;1.00;;;;;;5031167;28;20439;-73
2022/06/22 04:51:25;;;;;;;5.87;4.27;;;20.80;1.00;;;;;;5028756;28;20693;-73
2022/06/22 04:53:59;;;;;;;6.23;4.70;;;20.90;1.00;;;;;;5030629;28;20412;-73
2022/06/22 04:56:36;;;;;;;8.07;4.60;;;20.90;1.00;;;;;;5024870;28;20526;-72
2022/06/22 04:59:03;;;;;;;7.87;3.90;;;20.90;1.00;;;;;;5030225;28;20943;-72
2022/06/22 05:01:37;;;;;;;5.93;4.33;;;20.90;1.00;;;;;;5040416;28;20399;-73
2022/06/22 05:04:12;;;;;;;5.63;4.10;;;20.90;1.00;;;;;;5050858;28;20399;-73
2022/06/22 05:06:54;;;;;;;5.90;4.67;;;21.00;1.00;;;;;;5037598;28;20821;-73
2022/06/22 05:09:42;;;;;;;6.60;4.40;;;21.10;1.00;;;;;;5030174;28;20526;-73
2022/06/22 05:12:13;;;;;;;7.43;4.47;;;21.10;1.00;;;;;;5029505;28;20420;-73
2022/06/22 05:14:39;;;;;;;6.70;4.33;;;21.10;1.00;;;;;;5030280;28;20994;-73
2022/06/22 05:17:19;;;;;;;8.03;4.87;;;21.10;1.00;;;;;;5015775;28;20425;-72
2022/06/22 05:19:48;;;;;;;12.07;4.70;;;21.10;1.00;;;;;;5029645;28;20485;-73
2022/06/22 05:22:15;;;;;;;7.77;4.73;;;21.20;1.00;;;;;;5026850;28;20432;-73
2022/06/22 05:24:44;;;;;;;9.73;4.70;;;21.40;1.00;;;;;;5028267;28;20988;-73
2022/06/22 05:27:13;;;;;;;6.80;4.43;;;21.50;1.00;;;;;;5029266;28;20660;-73
2022/06/22 05:29:50;;;;;;;10.20;4.57;;;21.60;1.00;;;;;;5037752;28;20430;-73
2022/06/22 05:32:31;;;;;;;8.70;4.50;;;21.70;1.00;;;;;;5043570;28;20461;-72
2022/06/22 05:34:58;;;;;;;17.40;4.70;;;21.80;1.00;;;;;;5009794;28;20510;-73
2022/06/22 05:37:29;;;;;;;9.03;5.17;;;21.90;1.00;;;;;;5024580;28;20424;-73
2022/06/22 05:39:56;;;;;;;8.30;4.57;;;22.10;1.00;;;;;;5029712;28;20919;-73
2022/06/22 05:42:23;;;;;;;8.00;4.67;;;22.20;1.00;;;;;;5028772;28;20408;-73
2022/06/22 05:44:48;;;;;;;9.23;4.23;;;22.20;1.00;;;;;;5026388;28;20493;-73
2022/06/22 05:47:27;;;;;;;6.27;3.90;;;22.20;1.00;;;;;;5023522;28;20483;-73
2022/06/22 05:50:05;;;;;;;8.33;3.73;;;22.30;1.00;;;;;;5021452;28;20215;-73
2022/06/22 05:52:31;;;;;;;5.50;4.23;;;22.40;1.00;;;;;;5027983;28;20447;-73
2022/06/22 05:55:05;;;;;;;6.87;3.90;;;22.60;1.00;;;;;;5028980;28;20451;-73
2022/06/22 05:57:49;;;;;;;8.73;4.60;;;22.90;1.00;;;;;;5027440;28;20259;-73
2022/06/22 06:00:39;;;;;;;10.30;4.90;;;22.60;1.00;;;;;;5031556;28;20802;-73
2022/06/22 06:03:11;;;;;;;8.83;4.53;;;22.70;1.00;;;;;;5008761;28;20405;-73
2022/06/22 06:05:41;;;;;;;9.83;4.97;;;22.80;1.00;;;;;;5009272;28;20405;-73
2022/06/22 06:08:19;;;;;;;8.30;4.37;;;23.00;1.00;;;;;;5013572;28;20429;-73
2022/06/22 06:10:45;;;;;;;6.77;4.47;;;23.20;1.00;;;;;;5010660;28;20420;-73
2022/06/22 06:13:19;;;;;;;6.40;4.50;;;23.40;1.00;;;;;;5008307;28;20500;-73
2022/06/22 06:15:46;;;;;;;7.90;4.80;;;23.30;1.00;;;;;;5015294;28;20200;-73
2022/06/22 06:18:18;;;;;;;6.70;4.23;;;23.20;1.00;;;;;;5028422;28;20424;-73
2022/06/22 06:20:49;;;;;;;10.17;4.40;;;23.00;1.00;;;;;;5028475;28;20399;-73
2022/06/22 06:23:21;;;;;;;7.83;5.60;;;22.90;1.00;;;;;;5019506;28;20944;-73
2022/06/22 06:28:50;;;;;;;11.67;4.63;;;23.00;1.00;;;;;;5024789;28;20443;-73
2022/06/22 06:31:24;;;;;;;14.23;5.13;;;22.90;1.00;;;;;;5030180;28;20587;-73
2022/06/22 06:33:50;;;;;;;13.60;5.17;;;22.90;1.00;;;;;;5028558;28;20455;-73
2022/06/22 06:36:28;;;;;;;11.63;5.10;;;22.90;1.00;;;;;;5027769;28;21048;-73
2022/06/22 06:38:59;;;;;;;17.37;5.33;;;22.90;1.00;;;;;;5028507;28;20632;-73
2022/06/22 06:41:40;;;;;;;15.20;4.83;;;22.90;1.00;;;;;;5018934;28;20408;-73
2022/06/22 06:44:16;;;;;;;12.40;5.10;;;22.90;1.00;;;;;;5009013;28;20405;-73
2022/06/22 06:46:48;;;;;;;11.30;4.70;;;22.90;1.00;;;;;;5017681;28;20794;-73
2022/06/22 06:49:55;;;;;;;9.27;4.53;;;22.90;1.00;;;;;;5021918;28;20809;-73
2022/06/22 06:52:34;;;;;;;8.80;4.97;;;23.10;1.00;;;;;;5011821;28;20416;-73
2022/06/22 06:55:09;;;;;;;8.10;4.60;;;22.90;1.00;;;;;;5011785;28;20513;-73
2022/06/22 06:57:37;;;;;;;7.23;4.00;;;23.10;1.00;;;;;;5023001;28;20500;-72
2022/06/22 07:00:06;;;;;;;10.70;4.80;;;23.50;1.00;;;;;;5033579;28;20415;-73
2022/06/22 07:02:35;;;;;;;9.93;4.40;;;23.80;1.00;;;;;;5043923;28;20861;-73
2022/06/22 07:05:05;;;;;;;8.33;4.47;;;24.10;1.00;;;;;;5048454;28;20493;-73
2022/06/22 07:07:36;;;;;;;8.37;4.80;;;24.20;1.00;;;;;;5027927;28;20424;-73
2022/06/22 07:10:17;;;;;;;8.10;4.50;;;24.30;1.00;;;;;;5026505;28;20886;-73
2022/06/22 07:12:59;;;;;;;12.10;4.50;;;24.30;1.00;;;;;;5027255;28;20404;-73
2022/06/22 07:15:39;;;;;;;9.83;4.33;;;24.80;1.00;;;;;;5020049;28;20460;-73
2022/06/22 07:18:20;;;;;;;7.53;4.40;;;25.20;1.00;;;;;;5016762;28;20544;-73
2022/06/22 07:20:48;;;;;;;6.27;4.37;;;25.30;1.00;;;;;;5007969;28;20596;-73
2022/06/22 07:23:25;;;;;;;7.67;4.27;;;25.30;1.00;;;;;;5007312;28;20428;-73
2022/06/22 07:26:13;;;;;;;8.30;4.57;;;25.20;1.00;;;;;;5010355;28;20452;-73
2022/06/22 07:28:44;;;;;;;6.37;4.73;;;25.10;1.00;;;;;;5020893;28;20454;-73
2022/06/22 07:31:15;;;;;;;9.40;4.40;;;24.90;1.00;;;;;;5042426;28;20428;-73
2022/06/22 07:33:49;;;;;;;6.10;4.47;;;24.60;1.00;;;;;;5013526;28;20917;-73
2022/06/22 07:36:36;;;;;;;10.00;4.13;;;24.50;1.00;;;;;;5011582;28;20468;-73
2022/06/22 07:39:16;;;;;;;8.50;4.90;;;24.40;1.00;;;;;;5012351;28;20526;-73
2022/06/22 07:41:42;;;;;;;7.80;4.30;;;24.50;1.00;;;;;;5029945;28;20423;-73
2022/06/22 07:44:18;;;;;;;8.37;4.83;;;24.70;1.00;;;;;;5030715;28;20781;-73
2022/06/22 07:46:57;;;;;;;6.20;4.03;;;24.80;1.00;;;;;;5021862;28;20247;-73
2022/06/22 07:49:58;;;;;;;6.43;4.30;;;25.00;1.00;;;;;;5023922;28;20519;-73
2022/06/22 07:52:39;;;;;;;10.70;4.60;;;25.10;1.00;;;;;;5009064;28;20419;-73
2022/06/22 07:55:46;;;;;;;7.03;4.10;;;25.10;1.00;;;;;;5012515;28;21032;-73
2022/06/22 07:58:26;;;;;;;7.57;4.53;;;25.30;1.00;;;;;;5011152;28;20538;-73
2022/06/22 08:00:58;;;;;;;8.20;4.13;;;25.30;1.00;;;;;;5040954;28;20925;-72
2022/06/22 08:03:38;;;;;;;6.70;4.50;;;25.50;1.00;;;;;;5051487;28;20407;-77
2022/06/22 08:06:08;;;;;;;5.90;4.33;;;25.80;1.00;;;;;;5023570;28;20420;-77
2022/06/22 08:08:55;;;;;;;6.10;3.90;;;26.10;1.00;;;;;;5030723;28;20862;-77
2022/06/22 08:11:35;;;;;;;5.30;4.10;;;26.30;1.00;;;;;;5024512;28;21083;-78
2022/06/22 08:14:19;;;;;;;10.63;4.20;;;26.50;1.00;;;;;;5029695;28;20818;-78
2022/06/22 08:16:50;;;;;;;10.63;4.10;;;26.70;1.00;;;;;;5021416;28;20178;-77
2022/06/22 08:19:16;;;;;;;9.03;4.10;;;27.00;1.00;;;;;;5013252;28;20220;-78
2022/06/22 08:21:48;;;;;;;9.90;4.23;;;27.00;1.00;;;;;;5021519;28;20220;-78
2022/06/22 08:24:16;;;;;;;7.57;4.17;;;27.00;1.00;;;;;;5025134;28;20170;-77
2022/06/22 08:26:42;;;;;;;10.70;4.57;;;26.90;1.00;;;;;;5028790;28;20268;-77
2022/06/22 08:29:09;;;;;;;7.07;4.40;;;27.00;1.00;;;;;;5034719;28;20188;-78
2022/06/22 08:31:42;;;;;;;7.60;5.23;;;27.00;1.00;;;;;;5041735;28;20215;-77
2022/06/22 08:34:11;;;;;;;6.67;3.77;;;27.30;1.00;;;;;;5037397;28;20177;-78
2022/06/22 08:36:46;;;;;;;8.07;4.70;;;27.10;1.00;;;;;;5029012;28;20220;-77
2022/06/22 08:39:21;;;;;;;8.37;4.90;;;27.00;1.00;;;;;;5030789;28;20184;-78
2022/06/22 08:42:19;;;;;;;9.87;4.37;;;27.10;1.00;;;;;;5029527;28;20584;-77
2022/06/22 08:45:22;;;;;;;6.60;4.03;;;27.30;1.00;;;;;;5021566;28;20261;-77
2022/06/22 08:47:54;;;;;;;8.83;5.00;;;27.50;1.00;;;;;;5028110;28;20227;-77
2022/06/22 08:50:26;;;;;;;15.80;4.87;;;27.80;1.00;;;;;;5030575;28;20173;-77
2022/06/22 08:53:10;;;;;;;9.43;4.70;;;27.90;1.00;;;;;;5026951;28;20177;-77
2022/06/22 08:55:49;;;;;;;11.47;4.73;;;27.90;1.00;;;;;;5027653;28;20205;-77
2022/06/22 08:58:38;;;;;;;7.37;4.70;;;28.00;1.00;;;;;;5027428;28;20193;-78
2022/06/22 09:01:23;;;;;;;9.77;4.80;;;28.30;1.00;;;;;;5030300;28;20174;-77
2022/06/22 09:04:27;;;;;;;16.00;4.97;;;28.30;1.00;;;;;;5030316;28;20198;-77
2022/06/22 09:07:33;;;;;;;7.77;4.20;;;28.20;1.00;;;;;;5019716;28;20656;-78
2022/06/22 09:10:21;;;;;;;7.50;4.33;;;28.20;1.00;;;;;;5027789;28;20703;-77
2022/06/22 09:13:17;;;;;;;10.40;4.40;;;27.90;1.00;;;;;;5023699;28;20181;-75
2022/06/22 09:16:08;;;;;;;11.40;4.57;;;27.90;1.00;;;;;;5025625;28;20573;-73
2022/06/22 09:18:49;;;;;;;9.37;4.70;;;27.80;1.00;;;;;;5017047;28;20253;-74
2022/06/22 09:21:21;;;;;;;10.23;4.87;;;27.70;1.00;;;;;;5018140;28;20604;-74
2022/06/22 09:24:15;;;;;;;7.00;4.30;;;27.60;1.00;;;;;;5025431;28;20174;-73
2022/06/22 09:27:06;;;;;;;7.03;4.70;;;27.10;1.00;;;;;;5028573;28;20570;-74
2022/06/22 09:29:43;;;;;;;8.87;4.67;;;26.70;1.00;;;;;;5022221;28;20284;-74
2022/06/22 09:32:46;;;;;;;8.57;4.90;;;26.40;1.00;;;;;;5023669;28;20632;-74
2022/06/22 09:35:37;;;;;;;6.00;4.07;;;26.30;1.00;;;;;;5016907;28;20201;-73
2022/06/22 09:38:20;;;;;;;9.77;5.33;;;26.10;1.00;;;;;;5019329;28;20272;-73
2022/06/22 09:41:09;;;;;;;11.43;4.30;;;26.00;1.00;;;;;;5021503;28;20181;-74
2022/06/22 09:44:04;;;;;;;6.60;4.30;;;26.00;1.00;;;;;;5020682;28;20543;-74
2022/06/22 09:46:54;;;;;;;6.40;4.00;;;25.90;1.00;;;;;;5023559;28;20206;-74
2022/06/22 09:49:35;;;;;;;8.00;4.30;;;25.80;1.00;;;;;;5027217;28;20424;-75
2022/06/22 09:52:12;;;;;;;12.93;4.87;;;25.50;1.00;;;;;;5019895;28;20192;-75
2022/06/22 09:57:51;;;;;;;8.27;4.00;;;25.00;1.00;;;;;;5029548;28;20401;-74
2022/06/22 10:00:37;;;;;;;7.50;4.60;;;24.90;1.00;;;;;;5033563;28;20411;-74
2022/06/22 10:03:42;;;;;;;8.97;4.93;;;24.70;1.00;;;;;;5008030;28;20444;-75
2022/06/22 10:06:22;;;;;;;10.50;4.13;;;24.50;1.00;;;;;;5026303;28;20412;-73
2022/06/22 10:09:14;;;;;;;12.10;4.60;;;24.50;1.00;;;;;;5029484;28;20432;-72
2022/06/22 10:11:52;;;;;;;9.10;4.80;;;24.70;1.00;;;;;;5022793;28;20493;-73
2022/06/22 10:14:46;;;;;;;8.00;4.30;;;24.80;1.00;;;;;;5009960;28;20846;-73
2022/06/22 10:17:30;;;;;;;12.77;4.57;;;24.60;1.00;;;;;;5017028;28;20442;-73
2022/06/22 10:20:26;;;;;;;9.23;4.87;;;24.60;1.00;;;;;;5025789;28;20459;-73
2022/06/22 10:23:05;;;;;;;6.90;4.37;;;24.50;1.00;;;;;;5022651;28;20420;-73
2022/06/22 10:25:58;;;;;;;6.87;4.60;;;24.30;1.00;;;;;;5029236;28;20419;-73
2022/06/22 10:28:42;;;;;;;6.87;4.70;;;24.10;1.00;;;;;;5023825;28;20447;-73
2022/06/22 10:31:14;;;;;;;9.40;4.23;;;24.10;1.00;;;;;;5022576;28;20415;-73
2022/06/22 10:33:58;;;;;;;6.90;4.67;;;24.20;1.00;;;;;;5025932;28;20412;-73
2022/06/22 10:36:42;;;;;;;7.60;4.67;;;24.20;1.00;;;;;;5025163;28;20925;-73
2022/06/22 10:39:39;;;;;;;9.10;4.90;;;24.10;1.00;;;;;;5021215;28;20530;-73
2022/06/22 10:45:41;;;;;;;10.30;4.63;;;24.30;1.00;;;;;;5010862;28;20746;-73
2022/06/22 10:48:12;;;;;;;6.90;4.77;;;24.40;1.00;;;;;;5018015;28;20483;-73
2022/06/22 10:50:47;;;;;;;7.27;4.87;;;24.40;1.00;;;;;;5009849;28;20444;-73
2022/06/22 10:53:39;;;;;;;8.40;5.30;;;24.30;1.00;;;;;;5007399;28;21041;-73
2022/06/22 10:56:22;;;;;;;8.03;5.57;;;24.40;1.00;;;;;;5019916;28;20934;-73
2022/06/22 10:59:06;;;;;;;13.03;5.60;;;24.50;1.00;;;;;;5025795;28;20606;-73
2022/06/22 11:01:53;;;;;;;8.07;4.47;;;24.50;1.00;;;;;;5019694;28;20443;-73
2022/06/22 11:05:00;;;;;;;5.87;4.60;;;24.60;1.00;;;;;;5017924;28;20919;-73
2022/06/22 11:07:49;;;;;;;9.90;4.90;;;24.90;1.00;;;;;;5023703;28;20416;-72
2022/06/22 11:10:39;;;;;;;6.10;4.87;;;24.90;1.00;;;;;;5010052;28;20401;-74
2022/06/22 11:13:26;;;;;;;6.40;5.17;;;24.90;1.00;;;;;;5019585;28;20425;-74
2022/06/22 11:16:35;;;;;;;8.40;5.20;;;24.50;1.00;;;;;;5009521;28;20453;-74
2022/06/22 11:19:34;;;;;;;7.37;4.90;;;24.50;1.00;;;;;;5006466;28;20450;-74
2022/06/22 11:22:14;;;;;;;8.70;5.60;;;24.80;1.00;;;;;;5017671;28;20792;-75
2022/06/22 11:24:50;;;;;;;9.03;5.83;;;25.00;1.00;;;;;;5008763;28;20733;-75
2022/06/22 11:30:51;;;;;;;15.10;6.50;;;24.90;1.00;;;;;;5025778;28;20409;-74
2022/06/22 11:33:55;;;;;;;14.23;6.90;;;25.00;1.00;;;;;;5009517;28;20397;-73
2022/06/22 11:36:39;;;;;;;10.23;6.07;;;25.20;1.00;;;;;;5008094;28;20456;-74
2022/06/22 11:39:37;;;;;;;8.13;6.20;;;25.20;1.00;;;;;;5009437;28;20456;-75
2022/06/22 11:42:38;;;;;;;8.97;6.23;;;25.60;1.00;;;;;;5018963;28;20421;-75
2022/06/22 11:45:50;;;;;;;9.43;6.20;;;25.90;1.00;;;;;;5020637;28;20770;-75
2022/06/22 11:49:00;;;;;;;9.20;6.07;;;25.90;1.00;;;;;;5021321;28;20553;-75
2022/06/22 11:51:56;;;;;;;9.60;6.30;;;26.00;1.00;;;;;;5004369;28;20789;-75
2022/06/22 11:54:53;;;;;;;10.37;6.20;;;26.20;1.00;;;;;;5005984;28;20400;-75
2022/06/22 11:57:27;;;;;;;7.93;6.43;;;26.30;1.00;;;;;;5025093;28;20934;-75
2022/06/22 12:00:07;;;;;;;10.20;6.67;;;26.00;1.00;;;;;;5022323;28;20447;-74
2022/06/22 12:02:58;;;;;;;9.70;5.80;;;26.00;1.00;;;;;;5028282;28;20925;-76
2022/06/22 12:05:44;;;;;;;10.57;6.43;;;26.00;1.00;;;;;;5010238;28;20269;-75
2022/06/22 12:08:35;;;;;;;8.23;6.50;;;26.30;1.00;;;;;;5015423;28;20940;-77
2022/06/22 12:11:14;;;;;;;10.63;7.73;;;26.70;1.00;;;;;;5027943;28;20431;-75
2022/06/22 12:17:02;;;;;;;13.40;7.67;;;26.70;1.00;;;;;;5022046;28;20217;-75
2022/06/22 12:19:35;;;;;;;10.93;8.23;;;26.60;1.00;;;;;;5012059;28;20204;-75
2022/06/22 12:22:15;;;;;;;10.37;8.03;;;26.30;1.00;;;;;;5019769;28;20793;-75
2022/06/22 12:24:50;;;;;;;8.13;7.27;;;26.10;1.00;;;;;;5024189;28;20459;-75
2022/06/22 12:27:36;;;;;;;10.47;7.93;;;26.00;1.00;;;;;;5031053;28;20448;-75
2022/06/22 12:31:03;;;;;;;13.47;7.80;;;25.80;1.00;;;;;;5039894;28;20439;-76
2022/06/22 12:33:40;;;;;;;12.17;8.17;;;25.50;1.00;;;;;;4996827;28;20498;-75
2022/06/22 12:36:15;;;;;;;12.13;8.70;;;25.30;1.00;;;;;;5004654;28;20817;-75
2022/06/22 12:38:46;;;;;;;10.30;7.87;;;25.30;1.00;;;;;;5010432;28;20532;-75
2022/06/22 12:41:26;;;;;;;12.93;7.77;;;25.30;1.00;;;;;;5010953;28;20451;-79
2022/06/22 12:44:15;;;;;;;18.27;9.93;;;25.30;1.00;;;;;;5011672;28;20895;-76
2022/06/22 12:47:18;;;;;;;27.10;12.60;;;24.90;1.00;;;;;;5026529;28;20440;-75
2022/06/22 12:50:21;;;;;;;22.07;13.23;;;23.40;1.00;;;;;;5029601;28;20452;-75
2022/06/22 12:52:54;;;;;;;17.93;12.40;;;22.30;18.60;;;;;;5030001;28;21070;-75
2022/06/22 12:55:28;;;;;;;19.60;14.50;;;21.80;40.70;;;;;;5028877;28;20452;-75
2022/06/22 12:58:13;;;;;;;22.03;15.90;;;21.10;82.00;;;;;;5030163;28;20447;-75
2022/06/22 13:00:42;;;;;;;21.70;16.00;;;21.10;92.70;;;;;;5035629;28;20424;-75
2022/06/22 13:03:18;;;;;;;22.20;17.97;;;21.10;94.50;;;;;;5050641;28;20399;-75
2022/06/22 13:05:43;;;;;;;21.33;17.60;;;21.00;99.90;;;;;;5050575;28;20422;-75
2022/06/22 13:08:16;;;;;;;24.77;17.13;;;21.10;99.90;;;;;;5031085;28;20440;-75
2022/06/22 13:10:46;;;;;;;22.23;17.90;;;21.10;99.90;;;;;;5031096;28;20174;-75
2022/06/22 13:13:34;;;;;;;20.67;18.37;;;21.10;99.90;;;;;;5015476;28;20420;-75
2022/06/22 13:16:28;;;;;;;22.07;18.63;;;21.10;99.90;;;;;;5010977;28;20800;-75
2022/06/22 13:19:05;;;;;;;31.10;19.87;;;21.00;99.90;;;;;;5030411;28;20738;-75
2022/06/22 13:21:42;;;;;;;24.37;17.63;;;21.00;99.90;;;;;;5028966;28;20906;-74
2022/06/22 13:24:40;;;;;;;18.93;16.93;;;21.10;99.90;;;;;;5030211;28;20748;-75
2022/06/22 13:27:37;;;;;;;24.07;18.27;;;21.80;99.90;;;;;;5011135;28;20904;-74
2022/06/22 13:30:36;;;;;;;22.13;18.40;;;21.10;99.90;;;;;;5035814;28;20445;-74
2022/06/22 13:33:19;;;;;;;24.70;18.00;;;21.20;99.90;;;;;;5029390;28;20427;-74
2022/06/22 13:35:54;;;;;;;26.10;19.30;;;21.10;99.90;;;;;;5017451;28;20449;-75
2022/06/22 13:38:45;;;;;;;21.60;18.33;;;21.10;99.90;;;;;;5015726;28;20445;-76
2022/06/22 13:41:25;;;;;;;24.77;18.63;;;21.20;99.90;;;;;;5011749;28;20634;-73
2022/06/22 13:44:20;;;;;;;26.27;19.90;;;21.20;99.90;;;;;;5006244;28;20428;-74
2022/06/22 13:47:11;;;;;;;24.60;19.97;;;21.20;99.90;;;;;;5036452;28;20918;-74
2022/06/22 13:49:57;;;;;;;19.60;17.50;;;21.20;99.90;;;;;;5016471;28;20528;-73
2022/06/22 13:52:39;;;;;;;24.53;19.23;;;21.40;99.90;;;;;;5030700;28;20622;-74
2022/06/22 13:55:39;;;;;;;29.40;20.90;;;21.40;99.90;;;;;;5024550;28;21037;-74
2022/06/22 13:58:11;;;;;;;25.67;21.37;;;21.50;99.90;;;;;;5027531;28;20419;-74
2022/06/22 14:01:01;;;;;;;30.30;20.43;;;21.60;99.90;;;;;;5021345;28;20506;-75
2022/06/22 14:03:43;;;;;;;26.87;20.70;;;21.60;99.90;;;;;;5026081;28;20425;-74
2022/06/22 14:06:14;;;;;;;23.03;20.03;;;21.60;99.90;;;;;;5008160;28;20452;-75
2022/06/22 14:09:06;;;;;;;26.80;20.43;;;21.60;99.90;;;;;;5010895;28;20453;-74
2022/06/22 14:11:42;;;;;;;31.47;24.80;;;21.50;99.90;;;;;;5009716;28;20710;-74
2022/06/22 14:14:22;;;;;;;28.80;22.17;;;21.60;99.90;;;;;;5021325;28;20422;-74
2022/06/22 14:16:52;;;;;;;33.00;26.53;;;21.70;99.90;;;;;;5026989;28;20802;-74